Sebring, FL

11:27 PM EDT on September 01, 2014 (GMT -0400)
RAWS LAKE WALES FL US | Change Station
CLOSE
Current Station
Personal Weather Station
Location: Sebring, FL
Elevation: 141 ft
Nearby Weather Stations

Elev 141 ft 27.44 °N, 81.39 °W | Updated 41 minutes ago

Clear
Clear
77 °F
Feels Like 78 °F
N
2
Wind Variable Wind from SW
Gusts 4.0 mph

Today
High -- | Low -- °F
--% Chance of Precip.
Yesterday
High -- | Low -- °F
Precip. -- in
7:04 AM 7:46 PM
Waxing Crescent, 47% visible
Pressure 30.13 in
Visibility 10.0 miles
Clouds Few 2600 ft
Mostly Cloudy 3400 ft
Heat Index 78 °F
Dew Point 75 °F
Humidity 95%
Rainfall 0.04 in
Snow Depth Not available.
UV 0 out of 12
Pollen 7.80 out of 12
Air Quality Not available.
Flu Activity Not available.
METAR KBOW 020315Z AUTO 00000KT 10SM FEW026 BKN034 26/23 A3013 RMK AO2 LTG DSNT NW

More Conditions Fewer Conditions

Pressure 30.13 in
Visibility 10.0 miles
Clouds Few 2600 ft
Mostly Cloudy 3400 ft
Heat Index 78 °F
Dew Point 75 °F
Humidity 95%
Rainfall 0.04 in
Snow Depth Not available.
UV 0 out of 12
Pollen 7.80 out of 12
Air Quality Not available.
Flu Activity Not available.
METAR KBOW 020315Z AUTO 00000KT 10SM FEW026 BKN034 26/23 A3013 RMK AO2 LTG DSNT NW

More Conditions Fewer Conditions

10-Day Weather Forecast

Almanac

Astronomy

Sep. 01, 2014 Rise Set
Actual Time 7:04 AM EDT 7:46 PM EDT
Civil Twilight 6:40 AM EDT 8:09 PM EDT
Nautical Twilight 6:13 AM EDT 8:37 PM EDT
Astronomical Twilight 5:44 AM EDT 9:06 PM EDT
Moon 1:13 PM EDT (9/1) No Moon Set
Length of Visible Light 13h 28m
Length of Day
12h 41m
Tomorrow will be 1m 33s shorter.
Waxing Crescent, 47% of the Moon is Illuminated
Today
Waxing Crescent
Sep 2
First Quarter
Sep 8
Full
Sep 15
Last Quarter
Sep 24
New

Today's Extremes

State Highs State Lows

Community

WunderPhotos

Upload Photos

1,749,546 photos uploaded!

WunderBlogs® & News

Nearby

Snow Depth

Station Depth Elevation
No new snow has been reported.

Earthquake Activity

City Distance Mag. Time & Date
No recent earthquake activity has been reported nearby.
Minimum magnitude displayed is 2.5.

Coastal Water Temperatures

Place Temperature
No Stations Reporting

Nearby Weather Stations